createdAt,value
2022-08-24T00:02:07.512Z,19.96
2022-08-24T00:04:41.089Z,19.94
2022-08-24T00:07:13.834Z,19.96
2022-08-24T00:09:57.136Z,19.86
2022-08-24T00:12:27.971Z,19.80
2022-08-24T00:14:56.605Z,19.76
2022-08-24T00:17:25.436Z,19.78
2022-08-24T00:19:54.468Z,19.90
2022-08-24T00:22:23.029Z,20.99
2022-08-24T00:24:51.787Z,20.49
2022-08-24T00:27:20.362Z,20.18
2022-08-24T00:29:50.274Z,19.99
2022-08-24T00:32:19.004Z,19.87
2022-08-24T00:34:59.282Z,19.72
2022-08-24T00:37:29.914Z,19.63
2022-08-24T00:39:59.511Z,19.70
2022-08-24T00:42:28.149Z,20.27
2022-08-24T00:44:58.386Z,19.84
2022-08-24T00:47:33.674Z,19.68
2022-08-24T00:50:08.690Z,19.97
2022-08-24T00:52:47.458Z,20.07
2022-08-24T00:55:23.411Z,19.91
2022-08-24T00:57:58.946Z,19.69
2022-08-24T01:00:35.213Z,19.57
2022-08-24T01:03:07.452Z,19.54
2022-08-24T01:05:39.535Z,19.48
2022-08-24T01:08:13.000Z,19.50
2022-08-24T01:10:51.690Z,20.13
2022-08-24T01:13:21.167Z,20.17
2022-08-24T01:15:59.155Z,19.69
2022-08-24T01:18:46.973Z,19.49
2022-08-24T01:21:20.963Z,19.72
2022-08-24T01:23:54.677Z,20.58
2022-08-24T01:26:30.106Z,20.66
2022-08-24T01:29:05.401Z,20.23
2022-08-24T01:31:35.362Z,20.10
2022-08-24T01:34:05.676Z,19.87
2022-08-24T01:36:38.779Z,19.60
2022-08-24T01:39:16.032Z,19.45
2022-08-24T01:41:45.250Z,19.46
2022-08-24T01:44:15.403Z,19.75
2022-08-24T01:46:45.789Z,19.41
2022-08-24T01:49:14.976Z,19.26
2022-08-24T01:51:46.401Z,19.15
2022-08-24T01:54:17.724Z,19.16
2022-08-24T01:56:46.750Z,19.36
2022-08-24T01:59:18.086Z,19.76
2022-08-24T02:01:53.516Z,19.35
2022-08-24T02:04:22.376Z,19.14
2022-08-24T02:06:52.023Z,19.11
2022-08-24T02:09:22.145Z,19.10
2022-08-24T02:11:51.174Z,19.13
2022-08-24T02:14:20.684Z,19.09
2022-08-24T02:16:49.639Z,19.07
2022-08-24T02:19:27.294Z,19.79
2022-08-24T02:21:56.731Z,19.60
2022-08-24T02:24:27.074Z,19.31
2022-08-24T02:26:56.533Z,19.54
2022-08-24T02:29:25.895Z,19.28
2022-08-24T02:31:54.740Z,19.13
2022-08-24T02:34:23.619Z,19.09
2022-08-24T02:36:52.344Z,19.05
2022-08-24T02:39:22.372Z,19.13
2022-08-24T02:41:54.420Z,19.54
2022-08-24T02:44:23.764Z,19.68
2022-08-24T02:46:53.079Z,19.65
2022-08-24T02:49:23.259Z,19.43
2022-08-24T02:51:53.029Z,19.35
2022-08-24T02:54:23.494Z,19.89
2022-08-24T02:56:55.716Z,20.39
2022-08-24T02:59:24.762Z,20.51
2022-08-24T03:01:54.124Z,20.34
2022-08-24T03:04:24.580Z,19.89
2022-08-24T03:06:53.697Z,19.53
2022-08-24T03:09:24.728Z,19.39
2022-08-24T03:12:01.039Z,19.32
2022-08-24T03:14:29.593Z,19.28
2022-08-24T03:16:58.280Z,19.58
2022-08-24T03:19:27.159Z,19.63
2022-08-24T03:21:56.214Z,19.68
2022-08-24T03:24:25.014Z,19.49
2022-08-24T03:26:54.080Z,19.36
2022-08-24T03:29:25.456Z,19.29
2022-08-24T03:31:54.028Z,19.22
2022-08-24T03:34:22.813Z,19.18
2022-08-24T03:36:51.405Z,19.30
2022-08-24T03:39:20.054Z,19.55
2022-08-24T03:41:51.662Z,20.12
2022-08-24T03:44:23.165Z,20.05
2022-08-24T03:46:54.724Z,19.83
2022-08-24T03:49:25.874Z,19.70
2022-08-24T03:51:54.709Z,19.50
2022-08-24T03:54:25.394Z,19.44
2022-08-24T03:56:54.066Z,19.43
2022-08-24T03:59:23.746Z,19.41
2022-08-24T04:01:57.523Z,19.45
2022-08-24T04:04:30.498Z,20.09
2022-08-24T04:06:59.862Z,20.26
2022-08-24T04:09:29.681Z,19.95
2022-08-24T04:11:58.419Z,20.09
2022-08-24T04:14:28.227Z,20.43
2022-08-24T04:17:07.415Z,19.94
2022-08-24T04:19:57.770Z,19.86
2022-08-24T04:22:34.269Z,20.30
2022-08-24T04:25:09.487Z,19.95
2022-08-24T04:27:40.884Z,19.90
2022-08-24T04:30:14.069Z,20.58
2022-08-24T04:33:18.484Z,20.94
2022-08-24T04:35:50.419Z,21.26
2022-08-24T04:38:20.684Z,20.97
2022-08-24T04:41:15.489Z,20.68
2022-08-24T04:43:54.800Z,21.18
2022-08-24T04:46:24.244Z,20.89
2022-08-24T04:48:54.375Z,20.38
2022-08-24T04:51:23.734Z,20.15
2022-08-24T04:53:53.598Z,20.09
2022-08-24T04:56:25.432Z,20.15
2022-08-24T04:58:57.998Z,20.15
2022-08-24T05:01:32.725Z,20.84
2022-08-24T05:04:05.412Z,21.62
2022-08-24T05:06:34.846Z,22.12
2022-08-24T05:09:05.540Z,22.36
2022-08-24T05:11:39.592Z,21.86
2022-08-24T05:14:09.683Z,21.80
2022-08-24T05:16:45.575Z,21.42
2022-08-24T05:19:24.124Z,21.25
2022-08-24T05:21:53.127Z,22.28
2022-08-24T05:24:22.044Z,22.74
2022-08-24T05:26:53.240Z,22.62
2022-08-24T05:29:23.230Z,22.24
2022-08-24T05:31:53.609Z,21.62
2022-08-24T05:34:25.485Z,20.90
2022-08-24T05:36:54.913Z,20.71
2022-08-24T05:39:40.771Z,21.15
2022-08-24T05:42:10.951Z,21.75
2022-08-24T05:44:47.975Z,21.95
2022-08-24T05:47:20.865Z,21.48
2022-08-24T05:49:53.122Z,21.11
2022-08-24T05:52:24.982Z,20.96
2022-08-24T05:54:55.304Z,20.95
2022-08-24T05:57:26.276Z,21.88
2022-08-24T06:00:16.380Z,21.92
2022-08-24T06:02:48.431Z,22.19
2022-08-24T06:05:18.807Z,21.58
2022-08-24T06:07:48.111Z,22.08
2022-08-24T06:10:36.004Z,22.28
2022-08-24T06:13:05.809Z,21.92
2022-08-24T06:15:35.757Z,22.23
2022-08-24T06:18:05.822Z,23.21
2022-08-24T06:20:42.490Z,22.55
2022-08-24T06:23:11.761Z,22.37
2022-08-24T06:26:06.028Z,21.91
2022-08-24T06:28:34.965Z,21.93
2022-08-24T06:31:07.211Z,21.98
2022-08-24T06:33:37.021Z,22.16
2022-08-24T06:36:07.854Z,22.25
2022-08-24T06:38:36.880Z,22.46
2022-08-24T06:41:08.614Z,22.74
2022-08-24T06:43:38.240Z,22.79
2022-08-24T06:46:13.773Z,22.63
2022-08-24T06:48:46.874Z,22.77
2022-08-24T06:51:20.464Z,22.95
2022-08-24T06:53:51.434Z,23.14
2022-08-24T06:56:20.468Z,23.62
2022-08-24T06:58:49.176Z,23.28
2022-08-24T07:01:24.323Z,23.49
2022-08-24T07:03:53.522Z,23.73
2022-08-24T07:06:42.480Z,23.95
2022-08-24T07:09:12.261Z,23.88
2022-08-24T07:11:41.884Z,23.84
2022-08-24T07:14:11.719Z,23.83
2022-08-24T07:16:40.389Z,23.70
2022-08-24T07:19:10.069Z,24.08
2022-08-24T07:21:38.808Z,24.55
2022-08-24T07:24:10.750Z,24.89
2022-08-24T07:26:42.247Z,25.09
2022-08-24T07:29:43.636Z,25.18
2022-08-24T07:32:06.809Z,25.33
2022-08-24T07:34:38.467Z,25.69
2022-08-24T07:37:09.117Z,25.43
2022-08-24T07:39:42.792Z,25.53
2022-08-24T07:42:18.879Z,25.95
2022-08-24T07:44:52.752Z,25.46
2022-08-24T07:47:43.109Z,25.63
2022-08-24T07:50:24.814Z,27.64
2022-08-24T07:52:53.691Z,27.88
2022-08-24T07:55:23.965Z,27.60
2022-08-24T07:57:52.586Z,28.68
2022-08-24T08:00:22.986Z,28.28
2022-08-24T08:02:57.808Z,28.61
2022-08-24T08:05:26.927Z,28.57
2022-08-24T08:07:57.596Z,28.88
2022-08-24T08:10:31.148Z,27.91
2022-08-24T08:13:00.103Z,28.23
2022-08-24T08:15:29.108Z,28.85
2022-08-24T08:18:08.379Z,29.70
2022-08-24T08:20:42.649Z,28.96
2022-08-24T08:23:29.777Z,29.33
2022-08-24T08:26:23.059Z,29.05
2022-08-24T08:29:08.166Z,28.88
2022-08-24T08:31:39.752Z,29.10
2022-08-24T08:34:10.196Z,29.17
2022-08-24T08:36:41.695Z,28.16
2022-08-24T08:39:16.291Z,29.19
2022-08-24T08:42:58.116Z,29.22
2022-08-24T08:45:42.553Z,29.08
2022-08-24T08:49:20.125Z,28.67
2022-08-24T08:52:27.009Z,27.84
2022-08-24T08:55:21.237Z,28.02
2022-08-24T08:58:13.319Z,27.84
2022-08-24T09:01:01.578Z,28.22
2022-08-24T09:04:05.083Z,27.73
2022-08-24T09:07:13.049Z,27.48
2022-08-24T09:10:10.427Z,27.31
2022-08-24T09:13:06.735Z,28.62
2022-08-24T09:15:57.991Z,29.22
2022-08-24T09:18:48.448Z,30.06
2022-08-24T09:21:40.352Z,30.76
2022-08-24T09:24:42.141Z,30.91
2022-08-24T09:27:53.710Z,29.71
2022-08-24T09:30:27.236Z,30.91
2022-08-24T09:33:07.300Z,31.67
2022-08-24T09:36:10.859Z,32.18
2022-08-24T09:39:06.944Z,31.31
2022-08-24T09:42:31.635Z,32.44
2022-08-24T09:45:38.577Z,30.97
2022-08-24T09:48:54.571Z,30.55
2022-08-24T09:52:10.980Z,31.01
2022-08-24T09:55:37.128Z,31.49
2022-08-24T09:58:26.629Z,30.61
2022-08-24T10:01:09.933Z,29.97
2022-08-24T10:03:59.765Z,29.07
2022-08-24T10:06:46.727Z,29.03
2022-08-24T10:09:41.137Z,29.52
2022-08-24T10:12:21.943Z,29.15
2022-08-24T10:15:04.281Z,29.53
2022-08-24T10:18:01.892Z,28.52
2022-08-24T10:21:10.229Z,29.20
2022-08-24T10:23:59.987Z,28.68
2022-08-24T10:26:51.631Z,27.96
2022-08-24T10:29:43.044Z,27.89
2022-08-24T10:32:38.085Z,28.07
2022-08-24T10:35:15.641Z,28.38
2022-08-24T10:38:47.523Z,28.45
2022-08-24T10:42:07.164Z,28.79
2022-08-24T10:44:50.111Z,28.76
2022-08-24T10:47:24.465Z,28.66
2022-08-24T10:50:34.794Z,28.19
2022-08-24T10:53:23.733Z,28.54
2022-08-24T10:56:06.589Z,28.54
2022-08-24T10:59:03.288Z,28.87
2022-08-24T11:01:36.921Z,28.58
2022-08-24T11:04:11.222Z,29.38
2022-08-24T11:06:45.155Z,29.74
2022-08-24T11:09:19.648Z,29.49
2022-08-24T11:11:51.255Z,29.72
2022-08-24T11:14:29.528Z,29.30
2022-08-24T11:17:17.525Z,29.50
2022-08-24T11:19:46.877Z,29.20
2022-08-24T11:22:40.760Z,29.43
2022-08-24T11:25:21.793Z,28.85
2022-08-24T11:27:59.057Z,28.33
2022-08-24T11:30:31.120Z,29.05
2022-08-24T11:33:03.341Z,28.76
2022-08-24T11:35:39.926Z,28.78
2022-08-24T11:38:18.648Z,29.06
2022-08-24T11:40:55.705Z,28.94
2022-08-24T11:43:43.098Z,29.00
2022-08-24T11:46:28.718Z,29.57
2022-08-24T11:49:10.814Z,28.80
2022-08-24T11:51:55.369Z,28.78
2022-08-24T11:54:39.976Z,28.60
2022-08-24T11:57:18.234Z,28.63
2022-08-24T11:59:56.355Z,28.35
2022-08-24T12:02:35.048Z,29.52
2022-08-24T12:05:22.672Z,29.90
2022-08-24T12:08:06.806Z,29.67
2022-08-24T12:10:51.085Z,29.42
2022-08-24T12:13:37.279Z,29.90
2022-08-24T12:16:17.539Z,29.19
2022-08-24T12:18:58.325Z,29.96
2022-08-24T12:21:33.145Z,30.15
2022-08-24T12:24:08.215Z,30.35
2022-08-24T12:26:43.743Z,29.88
2022-08-24T12:29:22.115Z,30.54
2022-08-24T12:31:56.919Z,29.41
2022-08-24T12:34:38.207Z,29.66
2022-08-24T12:37:17.465Z,30.69
2022-08-24T12:39:55.272Z,30.45
2022-08-24T12:42:39.403Z,30.27
2022-08-24T12:45:12.661Z,30.19
2022-08-24T12:47:51.457Z,30.49
2022-08-24T12:50:33.008Z,30.94
2022-08-24T12:53:30.142Z,31.41
2022-08-24T12:57:07.617Z,30.60
2022-08-24T12:59:45.355Z,30.64
2022-08-24T13:02:36.663Z,30.14
2022-08-24T13:05:15.376Z,30.88
2022-08-24T13:07:48.769Z,30.74
2022-08-24T13:10:44.922Z,31.18
2022-08-24T13:13:39.075Z,31.24
2022-08-24T13:16:32.495Z,30.86
2022-08-24T13:19:19.267Z,30.87
2022-08-24T13:21:55.998Z,30.53
2022-08-24T13:24:52.823Z,31.05
2022-08-24T13:28:02.490Z,30.98
2022-08-24T13:31:13.952Z,30.96
2022-08-24T13:33:48.746Z,31.10
2022-08-24T13:36:56.005Z,31.68
2022-08-24T13:39:52.776Z,31.89
2022-08-24T13:42:52.641Z,31.49
2022-08-24T13:45:35.206Z,31.19
2022-08-24T13:48:27.095Z,32.16
2022-08-24T13:51:30.107Z,31.19
2022-08-24T13:54:20.246Z,31.97
2022-08-24T13:57:10.065Z,32.04
2022-08-24T14:00:03.329Z,31.94
2022-08-24T14:03:00.130Z,32.25
2022-08-24T14:05:38.468Z,32.53
2022-08-24T14:08:31.209Z,32.37
2022-08-24T14:11:10.969Z,32.09
2022-08-24T14:14:04.159Z,31.82
2022-08-24T14:17:20.159Z,32.40
2022-08-24T14:20:04.102Z,32.04
2022-08-24T14:22:40.653Z,31.69
2022-08-24T14:25:24.197Z,31.56
2022-08-24T14:28:38.924Z,31.54
2022-08-24T14:31:28.224Z,31.63
2022-08-24T14:34:18.935Z,31.09
2022-08-24T14:36:57.715Z,31.27
2022-08-24T14:39:40.237Z,31.18
2022-08-24T14:42:22.653Z,31.24
2022-08-24T14:45:07.922Z,30.98
2022-08-24T14:47:54.977Z,30.77
2022-08-24T14:50:33.306Z,30.94
2022-08-24T14:53:34.137Z,30.48
2022-08-24T14:56:25.191Z,30.91
2022-08-24T14:59:11.004Z,30.78
2022-08-24T15:01:44.856Z,31.03
2022-08-24T15:04:38.005Z,31.31
2022-08-24T15:07:28.640Z,30.55
2022-08-24T15:10:01.009Z,31.18
2022-08-24T15:12:42.808Z,31.24
2022-08-24T15:15:25.528Z,31.53
2022-08-24T15:18:06.885Z,31.31
2022-08-24T15:20:57.596Z,31.21
2022-08-24T15:23:45.447Z,31.38
2022-08-24T15:26:28.599Z,31.21
2022-08-24T15:28:58.090Z,31.11
2022-08-24T15:31:32.392Z,31.26
2022-08-24T15:34:04.321Z,31.56
2022-08-24T15:36:34.772Z,31.12
2022-08-24T15:39:06.479Z,31.28
2022-08-24T15:41:39.992Z,30.71
2022-08-24T15:44:21.179Z,30.66
2022-08-24T15:46:58.917Z,30.65
2022-08-24T15:49:35.368Z,31.09
2022-08-24T15:52:08.115Z,31.06
2022-08-24T15:54:59.073Z,30.99
2022-08-24T15:57:31.369Z,31.09
2022-08-24T16:00:13.896Z,30.61
2022-08-24T16:02:43.668Z,30.93
2022-08-24T16:05:21.452Z,31.17
2022-08-24T16:08:11.056Z,30.84
2022-08-24T16:10:44.869Z,29.92
2022-08-24T16:13:28.300Z,30.23
2022-08-24T16:16:06.114Z,30.13
2022-08-24T16:18:50.849Z,29.53
2022-08-24T16:21:28.890Z,30.19
2022-08-24T16:24:08.283Z,30.52
2022-08-24T16:26:57.920Z,30.11
2022-08-24T16:29:55.845Z,30.71
2022-08-24T16:32:30.579Z,30.11
2022-08-24T16:35:23.147Z,29.79
2022-08-24T16:37:54.790Z,30.02
2022-08-24T16:40:24.745Z,29.52
2022-08-24T16:42:55.400Z,29.99
2022-08-24T16:45:24.918Z,29.99
2022-08-24T16:47:53.914Z,30.07
2022-08-24T16:50:27.496Z,29.64
2022-08-24T16:52:56.604Z,30.04
2022-08-24T16:55:25.723Z,30.09
2022-08-24T16:57:54.341Z,30.10
2022-08-24T17:00:23.818Z,29.74
2022-08-24T17:02:52.498Z,30.16
2022-08-24T17:05:21.115Z,29.46
2022-08-24T17:07:51.860Z,29.54
2022-08-24T17:10:23.274Z,29.20
2022-08-24T17:12:52.208Z,29.83
2022-08-24T17:15:22.295Z,29.57
2022-08-24T17:18:00.043Z,29.61
2022-08-24T17:20:29.422Z,29.42
2022-08-24T17:22:59.868Z,29.33
2022-08-24T17:25:30.426Z,28.83
2022-08-24T17:28:01.204Z,28.41
2022-08-24T17:30:30.883Z,28.11
2022-08-24T17:33:00.637Z,27.70
2022-08-24T17:35:29.596Z,27.32
2022-08-24T17:38:01.032Z,27.20
2022-08-24T17:40:32.029Z,26.91
2022-08-24T17:43:00.922Z,26.74
2022-08-24T17:45:29.911Z,26.66
2022-08-24T17:47:58.732Z,26.47
2022-08-24T17:50:28.569Z,26.37
2022-08-24T17:53:00.234Z,26.29
2022-08-24T17:55:30.847Z,26.20
2022-08-24T17:58:01.914Z,26.12
2022-08-24T18:00:30.793Z,26.06
2022-08-24T18:02:59.682Z,26.07
2022-08-24T18:05:28.846Z,25.97
2022-08-24T18:07:58.003Z,25.92
2022-08-24T18:10:32.310Z,25.91
2022-08-24T18:13:03.610Z,25.73
2022-08-24T18:15:37.440Z,25.65
2022-08-24T18:18:09.804Z,25.57
2022-08-24T18:20:42.558Z,25.58
2022-08-24T18:23:12.576Z,25.53
2022-08-24T18:25:48.491Z,25.46
2022-08-24T18:28:21.944Z,25.32
2022-08-24T18:30:52.584Z,25.22
2022-08-24T18:33:21.714Z,25.23
2022-08-24T18:35:50.429Z,25.15
2022-08-24T18:38:19.214Z,25.10
2022-08-24T18:40:52.863Z,25.08
2022-08-24T18:43:24.936Z,24.97
2022-08-24T18:45:54.856Z,24.88
2022-08-24T18:48:24.094Z,24.79
2022-08-24T18:50:54.768Z,24.76
2022-08-24T18:53:27.313Z,24.75
2022-08-24T18:55:59.664Z,25.16
2022-08-24T18:58:30.526Z,25.36
2022-08-24T19:00:59.309Z,24.99
2022-08-24T19:03:28.879Z,25.05
2022-08-24T19:05:57.678Z,24.95
2022-08-24T19:08:26.411Z,25.08
2022-08-24T19:10:56.641Z,26.00
2022-08-24T19:13:25.591Z,25.68
2022-08-24T19:15:54.355Z,25.51
2022-08-24T19:18:23.889Z,26.11
2022-08-24T19:20:57.559Z,25.37
2022-08-24T19:23:30.363Z,25.06
2022-08-24T19:26:01.981Z,25.12
2022-08-24T19:28:31.902Z,26.29
2022-08-24T19:31:05.291Z,25.98
2022-08-24T19:33:38.287Z,25.45
2022-08-24T19:36:10.497Z,25.31
2022-08-24T19:38:39.373Z,25.27
2022-08-24T19:41:12.662Z,25.63
2022-08-24T19:43:57.042Z,26.43
2022-08-24T19:46:26.482Z,26.03
2022-08-24T19:48:55.334Z,25.50
2022-08-24T19:51:23.911Z,25.55
2022-08-24T19:53:52.942Z,25.69
2022-08-24T19:56:23.788Z,25.31
2022-08-24T19:59:01.704Z,25.95
2022-08-24T20:01:34.862Z,25.46
2022-08-24T20:04:06.357Z,25.30
2022-08-24T20:06:37.193Z,25.25
2022-08-24T20:09:06.912Z,24.81
2022-08-24T20:11:38.944Z,25.06
2022-08-24T20:14:08.106Z,25.08
2022-08-24T20:16:42.138Z,25.00
2022-08-24T20:19:12.813Z,24.79
2022-08-24T20:21:41.716Z,24.82
2022-08-24T20:24:11.298Z,24.20
2022-08-24T20:26:45.089Z,24.39
2022-08-24T20:29:15.265Z,24.67
2022-08-24T20:31:45.451Z,24.92
2022-08-24T20:34:14.555Z,24.89
2022-08-24T20:36:50.706Z,24.32
2022-08-24T20:39:25.336Z,24.62
2022-08-24T20:41:56.182Z,24.34
2022-08-24T20:44:24.938Z,24.09
2022-08-24T20:46:54.856Z,24.40
2022-08-24T20:49:27.827Z,24.40
2022-08-24T20:51:56.615Z,24.18
2022-08-24T20:54:25.469Z,24.06
2022-08-24T20:56:55.731Z,24.19
2022-08-24T20:59:24.370Z,23.70
2022-08-24T21:01:55.868Z,23.95
2022-08-24T21:04:24.616Z,23.73
2022-08-24T21:06:53.457Z,24.01
2022-08-24T21:09:22.488Z,23.70
2022-08-24T21:11:51.134Z,23.71
2022-08-24T21:14:21.066Z,24.07
2022-08-24T21:16:49.891Z,23.92
2022-08-24T21:19:18.430Z,23.97
2022-08-24T21:21:48.361Z,24.18
2022-08-24T21:24:17.938Z,23.68
2022-08-24T21:26:47.055Z,24.02
2022-08-24T21:29:15.747Z,23.71
2022-08-24T21:32:06.179Z,23.99
2022-08-24T21:34:42.728Z,24.00
2022-08-24T21:37:15.140Z,23.48
2022-08-24T21:39:46.725Z,23.95
2022-08-24T21:42:17.514Z,24.17
2022-08-24T21:44:48.825Z,24.09
2022-08-24T21:47:18.990Z,23.70
2022-08-24T21:49:47.567Z,23.84
2022-08-24T21:52:16.297Z,23.53
2022-08-24T21:54:45.318Z,23.42
2022-08-24T21:57:14.050Z,23.71
2022-08-24T21:59:43.238Z,23.69
2022-08-24T22:02:13.507Z,23.20
2022-08-24T22:04:47.039Z,23.25
2022-08-24T22:07:23.962Z,23.39
2022-08-24T22:09:52.566Z,23.46
2022-08-24T22:12:21.170Z,23.17
2022-08-24T22:14:49.969Z,23.49
2022-08-24T22:17:18.629Z,23.34
2022-08-24T22:19:48.519Z,23.29
2022-08-24T22:22:17.315Z,23.24
2022-08-24T22:24:46.019Z,23.24
2022-08-24T22:27:14.995Z,23.20
2022-08-24T22:29:43.828Z,23.14
2022-08-24T22:32:12.676Z,23.03
2022-08-24T22:34:41.239Z,23.06
2022-08-24T22:37:11.416Z,22.69
2022-08-24T22:39:39.975Z,22.66
2022-08-24T22:42:09.453Z,22.76
2022-08-24T22:44:38.273Z,22.94
2022-08-24T22:47:13.271Z,22.33
2022-08-24T22:49:44.790Z,22.67
2022-08-24T22:52:16.683Z,22.41
2022-08-24T22:54:45.425Z,21.90
2022-08-24T22:57:14.341Z,22.18
2022-08-24T22:59:48.543Z,21.90
2022-08-24T23:02:19.752Z,23.10
2022-08-24T23:04:52.777Z,22.90
2022-08-24T23:07:23.089Z,22.40
2022-08-24T23:09:52.175Z,22.38
2022-08-24T23:12:24.224Z,23.28
2022-08-24T23:14:54.046Z,22.62
2022-08-24T23:17:23.781Z,22.63
2022-08-24T23:20:01.466Z,22.67
2022-08-24T23:22:36.112Z,22.44
2022-08-24T23:25:06.999Z,22.42
2022-08-24T23:27:37.916Z,22.10
2022-08-24T23:30:12.478Z,22.43
2022-08-24T23:32:43.097Z,22.72
2022-08-24T23:35:11.728Z,23.20
2022-08-24T23:37:42.273Z,23.07
2022-08-24T23:40:12.574Z,23.07
2022-08-24T23:42:41.171Z,22.20
2022-08-24T23:45:12.377Z,22.79
2022-08-24T23:47:41.850Z,22.75
2022-08-24T23:50:11.734Z,22.69
2022-08-24T23:52:42.209Z,22.06
2022-08-24T23:55:20.970Z,22.32
2022-08-24T23:57:52.554Z,21.86
